sensor_id;sensor_type;location;lat;lon;timestamp;pressure;altitude;pressure_sealevel;temperature;humidity
9521;BME280;4798;41.574;23.734;2023-04-01T00:00:59;94696.84;;;12.50;59.53
9521;BME280;4798;41.574;23.734;2023-04-01T00:03:28;94689.16;;;12.62;59.30
9521;BME280;4798;41.574;23.734;2023-04-01T00:05:58;94693.59;;;12.40;60.45
9521;BME280;4798;41.574;23.734;2023-04-01T00:08:28;94684.34;;;12.37;60.35
9521;BME280;4798;41.574;23.734;2023-04-01T00:10:58;94664.97;;;12.37;60.19
9521;BME280;4798;41.574;23.734;2023-04-01T00:13:27;94678.25;;;12.37;60.65
9521;BME280;4798;41.574;23.734;2023-04-01T00:15:55;94676.38;;;12.37;60.17
9521;BME280;4798;41.574;23.734;2023-04-01T00:18:26;94681.09;;;12.54;60.23
9521;BME280;4798;41.574;23.734;2023-04-01T00:20:54;94665.44;;;12.52;60.07
9521;BME280;4798;41.574;23.734;2023-04-01T00:23:22;94669.38;;;12.68;59.78
9521;BME280;4798;41.574;23.734;2023-04-01T00:25:51;94678.63;;;12.71;59.46
9521;BME280;4798;41.574;23.734;2023-04-01T00:28:20;94653.53;;;12.50;59.90
9521;BME280;4798;41.574;23.734;2023-04-01T00:30:49;94686.03;;;12.33;61.16
9521;BME280;4798;41.574;23.734;2023-04-01T00:33:17;94676.56;;;12.41;60.99
9521;BME280;4798;41.574;23.734;2023-04-01T00:35:46;94688.47;;;12.30;61.76
9521;BME280;4798;41.574;23.734;2023-04-01T00:38:14;94669.88;;;12.43;61.17
9521;BME280;4798;41.574;23.734;2023-04-01T00:40:45;94664.06;;;12.00;62.83
9521;BME280;4798;41.574;23.734;2023-04-01T00:43:16;94686.72;;;12.12;62.60
9521;BME280;4798;41.574;23.734;2023-04-01T00:45:48;94681.09;;;12.40;61.58
9521;BME280;4798;41.574;23.734;2023-04-01T00:48:18;94670.66;;;12.30;61.81
9521;BME280;4798;41.574;23.734;2023-04-01T00:50:49;94674.78;;;12.50;60.95
9521;BME280;4798;41.574;23.734;2023-04-01T00:53:20;94678.25;;;12.23;61.77
9521;BME280;4798;41.574;23.734;2023-04-01T00:55:52;94617.13;;;11.50;62.61
9521;BME280;4798;41.574;23.734;2023-04-01T00:58:23;94677.38;;;11.82;64.25
9521;BME280;4798;41.574;23.734;2023-04-01T01:00:57;94605.06;;;11.58;62.92
9521;BME280;4798;41.574;23.734;2023-04-01T01:03:26;94673.59;;;12.15;62.87
9521;BME280;4798;41.574;23.734;2023-04-01T01:09:01;94662.09;;;12.06;64.14
9521;BME280;4798;41.574;23.734;2023-04-01T01:11:38;94660.13;;;12.25;63.16
9521;BME280;4798;41.574;23.734;2023-04-01T01:14:24;94646.84;;;12.25;62.83
9521;BME280;4798;41.574;23.734;2023-04-01T01:17:06;94611.25;;;11.53;64.67
9521;BME280;4798;41.574;23.734;2023-04-01T01:19:49;94653.25;;;11.65;65.49
9521;BME280;4798;41.574;23.734;2023-04-01T01:22:39;94638.19;;;11.79;64.86
9521;BME280;4798;41.574;23.734;2023-04-01T01:25:29;94632.06;;;11.78;65.00
9521;BME280;4798;41.574;23.734;2023-04-01T01:28:13;94643.03;;;12.04;64.15
9521;BME280;4798;41.574;23.734;2023-04-01T01:30:51;94641.34;;;12.08;63.58
9521;BME280;4798;41.574;23.734;2023-04-01T01:33:35;94582.59;;;11.36;65.49
9521;BME280;4798;41.574;23.734;2023-04-01T01:36:13;94647.59;;;11.71;65.68
9521;BME280;4798;41.574;23.734;2023-04-01T01:38:45;94628.03;;;11.48;67.12
9521;BME280;4798;41.574;23.734;2023-04-01T01:41:16;94644.28;;;11.93;64.60
9521;BME280;4798;41.574;23.734;2023-04-01T01:43:48;94574.16;;;11.02;66.44
9521;BME280;4798;41.574;23.734;2023-04-01T01:46:21;94632.13;;;11.41;67.19
9521;BME280;4798;41.574;23.734;2023-04-01T01:48:51;94622.63;;;11.21;67.29
9521;BME280;4798;41.574;23.734;2023-04-01T01:51:22;94630.81;;;11.57;66.34
9521;BME280;4798;41.574;23.734;2023-04-01T01:53:51;94621.50;;;11.27;67.54
9521;BME280;4798;41.574;23.734;2023-04-01T01:56:22;94605.44;;;11.51;66.82
9521;BME280;4798;41.574;23.734;2023-04-01T01:58:53;94628.53;;;11.83;65.91
9521;BME280;4798;41.574;23.734;2023-04-01T02:01:24;94627.81;;;11.77;65.67
9521;BME280;4798;41.574;23.734;2023-04-01T02:03:55;94623.34;;;11.59;66.74
9521;BME280;4798;41.574;23.734;2023-04-01T02:06:28;94634.06;;;11.03;69.29
9521;BME280;4798;41.574;23.734;2023-04-01T02:09:00;94618.03;;;10.95;71.42
9521;BME280;4798;41.574;23.734;2023-04-01T02:11:32;94626.81;;;11.41;69.20
9521;BME280;4798;41.574;23.734;2023-04-01T02:14:05;94613.94;;;11.02;70.39
9521;BME280;4798;41.574;23.734;2023-04-01T02:16:39;94598.13;;;11.11;69.59
9521;BME280;4798;41.574;23.734;2023-04-01T02:19:13;94626.81;;;11.27;69.59
9521;BME280;4798;41.574;23.734;2023-04-01T02:21:53;94610.53;;;11.47;67.48
9521;BME280;4798;41.574;23.734;2023-04-01T02:24:25;94605.16;;;11.20;68.64
9521;BME280;4798;41.574;23.734;2023-04-01T02:26:54;94632.19;;;11.55;68.79
9521;BME280;4798;41.574;23.734;2023-04-01T02:29:24;94620.50;;;11.56;69.64
9521;BME280;4798;41.574;23.734;2023-04-01T02:31:53;94521.16;;;10.83;68.56
9521;BME280;4798;41.574;23.734;2023-04-01T02:34:23;94560.25;;;11.24;67.86
9521;BME280;4798;41.574;23.734;2023-04-01T02:36:55;94550.38;;;11.29;67.77
9521;BME280;4798;41.574;23.734;2023-04-01T02:39:24;94604.72;;;11.78;67.33
9521;BME280;4798;41.574;23.734;2023-04-01T02:41:53;94606.72;;;11.21;68.90
9521;BME280;4798;41.574;23.734;2023-04-01T02:44:22;94602.69;;;11.10;71.20
9521;BME280;4798;41.574;23.734;2023-04-01T02:46:50;94587.66;;;11.19;70.10
9521;BME280;4798;41.574;23.734;2023-04-01T02:49:19;94588.88;;;10.95;71.19
9521;BME280;4798;41.574;23.734;2023-04-01T02:51:48;94587.69;;;11.01;71.61
9521;BME280;4798;41.574;23.734;2023-04-01T02:54:18;94581.09;;;11.17;71.84
9521;BME280;4798;41.574;23.734;2023-04-01T02:56:46;94571.31;;;11.44;69.24
9521;BME280;4798;41.574;23.734;2023-04-01T02:59:14;94570.75;;;11.47;69.18
9521;BME280;4798;41.574;23.734;2023-04-01T03:01:43;94545.31;;;11.14;69.98
9521;BME280;4798;41.574;23.734;2023-04-01T03:04:11;94563.84;;;11.79;67.06
9521;BME280;4798;41.574;23.734;2023-04-01T03:06:39;94571.00;;;11.78;67.80
9521;BME280;4798;41.574;23.734;2023-04-01T03:09:08;94568.84;;;12.07;66.42
9521;BME280;4798;41.574;23.734;2023-04-01T03:11:38;94568.66;;;11.44;68.09
9521;BME280;4798;41.574;23.734;2023-04-01T03:14:07;94576.75;;;11.53;68.88
9521;BME280;4798;41.574;23.734;2023-04-01T03:16:35;94576.50;;;11.68;68.21
9521;BME280;4798;41.574;23.734;2023-04-01T03:19:04;94566.78;;;11.91;67.01
9521;BME280;4798;41.574;23.734;2023-04-01T03:21:32;94549.38;;;11.98;66.45
9521;BME280;4798;41.574;23.734;2023-04-01T03:24:01;94565.38;;;12.07;65.65
9521;BME280;4798;41.574;23.734;2023-04-01T03:26:29;94572.19;;;12.13;65.60
9521;BME280;4798;41.574;23.734;2023-04-01T03:28:59;94573.47;;;12.16;65.22
9521;BME280;4798;41.574;23.734;2023-04-01T03:31:27;94569.22;;;12.15;65.20
9521;BME280;4798;41.574;23.734;2023-04-01T03:33:55;94550.66;;;11.74;67.49
9521;BME280;4798;41.574;23.734;2023-04-01T03:36:24;94567.94;;;11.25;69.22
9521;BME280;4798;41.574;23.734;2023-04-01T03:38:52;94560.69;;;10.99;71.30
9521;BME280;4798;41.574;23.734;2023-04-01T03:41:21;94562.38;;;10.76;72.04
9521;BME280;4798;41.574;23.734;2023-04-01T03:43:49;94564.91;;;10.67;73.62
9521;BME280;4798;41.574;23.734;2023-04-01T03:46:19;94541.97;;;10.20;75.41
9521;BME280;4798;41.574;23.734;2023-04-01T03:48:48;94562.72;;;10.13;78.62
9521;BME280;4798;41.574;23.734;2023-04-01T03:51:16;94548.78;;;10.03;79.58
9521;BME280;4798;41.574;23.734;2023-04-01T03:53:44;94550.50;;;9.94;79.94
9521;BME280;4798;41.574;23.734;2023-04-01T03:56:13;94509.50;;;9.68;79.83
9521;BME280;4798;41.574;23.734;2023-04-01T03:58:41;94546.91;;;10.27;77.83
9521;BME280;4798;41.574;23.734;2023-04-01T04:01:17;94542.84;;;9.45;81.38
9521;BME280;4798;41.574;23.734;2023-04-01T04:03:49;94538.94;;;9.37;83.54
9521;BME280;4798;41.574;23.734;2023-04-01T04:06:19;94540.91;;;9.74;82.58
9521;BME280;4798;41.574;23.734;2023-04-01T04:08:47;94543.00;;;10.01;81.30
9521;BME280;4798;41.574;23.734;2023-04-01T04:11:16;94540.97;;;10.35;78.53
9521;BME280;4798;41.574;23.734;2023-04-01T04:13:44;94557.94;;;10.53;77.26
9521;BME280;4798;41.574;23.734;2023-04-01T04:16:15;94572.13;;;10.62;76.54
9521;BME280;4798;41.574;23.734;2023-04-01T04:18:43;94562.22;;;10.86;74.69
9521;BME280;4798;41.574;23.734;2023-04-01T04:21:14;94539.22;;;10.81;73.79
9521;BME280;4798;41.574;23.734;2023-04-01T04:23:43;94549.97;;;10.71;75.18
9521;BME280;4798;41.574;23.734;2023-04-01T04:26:13;94557.72;;;10.31;76.53
9521;BME280;4798;41.574;23.734;2023-04-01T04:28:42;94551.03;;;10.70;74.57
9521;BME280;4798;41.574;23.734;2023-04-01T04:31:10;94543.72;;;10.81;73.95
9521;BME280;4798;41.574;23.734;2023-04-01T04:33:39;94543.94;;;10.84;73.32
9521;BME280;4798;41.574;23.734;2023-04-01T04:36:08;94538.72;;;10.79;73.80
9521;BME280;4798;41.574;23.734;2023-04-01T04:38:38;94545.72;;;10.89;73.55
9521;BME280;4798;41.574;23.734;2023-04-01T04:41:08;94546.84;;;11.02;72.55
9521;BME280;4798;41.574;23.734;2023-04-01T04:43:39;94541.72;;;10.92;73.61
9521;BME280;4798;41.574;23.734;2023-04-01T04:46:07;94534.31;;;11.07;72.85
9521;BME280;4798;41.574;23.734;2023-04-01T04:48:36;94537.28;;;10.87;74.13
9521;BME280;4798;41.574;23.734;2023-04-01T04:51:04;94530.38;;;11.05;73.13
9521;BME280;4798;41.574;23.734;2023-04-01T04:53:33;94529.56;;;11.04;73.14
9521;BME280;4798;41.574;23.734;2023-04-01T04:56:02;94533.06;;;10.86;74.73
9521;BME280;4798;41.574;23.734;2023-04-01T04:58:31;94489.28;;;10.38;76.17
9521;BME280;4798;41.574;23.734;2023-04-01T05:01:05;94476.31;;;10.55;76.41
9521;BME280;4798;41.574;23.734;2023-04-01T05:03:34;94512.03;;;11.22;74.82
9521;BME280;4798;41.574;23.734;2023-04-01T05:06:02;94508.41;;;11.31;73.12
9521;BME280;4798;41.574;23.734;2023-04-01T05:08:31;94517.59;;;11.53;71.93
9521;BME280;4798;41.574;23.734;2023-04-01T05:10:59;94522.38;;;11.37;73.03
9521;BME280;4798;41.574;23.734;2023-04-01T05:13:29;94524.66;;;10.98;74.14
9521;BME280;4798;41.574;23.734;2023-04-01T05:15:57;94524.53;;;10.89;76.57
9521;BME280;4798;41.574;23.734;2023-04-01T05:18:26;94523.03;;;11.15;74.14
9521;BME280;4798;41.574;23.734;2023-04-01T05:20:55;94526.38;;;11.21;72.86
9521;BME280;4798;41.574;23.734;2023-04-01T05:23:23;94525.34;;;11.63;71.60
9521;BME280;4798;41.574;23.734;2023-04-01T05:25:51;94527.63;;;11.56;70.84
9521;BME280;4798;41.574;23.734;2023-04-01T05:28:20;94529.09;;;11.02;73.32
9521;BME280;4798;41.574;23.734;2023-04-01T05:30:49;94525.41;;;10.66;76.23
9521;BME280;4798;41.574;23.734;2023-04-01T05:33:18;94488.88;;;10.63;77.24
9521;BME280;4798;41.574;23.734;2023-04-01T05:35:46;94516.25;;;10.58;77.62
9521;BME280;4798;41.574;23.734;2023-04-01T05:38:15;94513.03;;;10.80;77.29
9521;BME280;4798;41.574;23.734;2023-04-01T05:40:43;94510.56;;;11.29;74.15
9521;BME280;4798;41.574;23.734;2023-04-01T05:43:11;94502.25;;;11.63;72.22
9521;BME280;4798;41.574;23.734;2023-04-01T05:45:40;94507.31;;;11.78;71.62
9521;BME280;4798;41.574;23.734;2023-04-01T05:48:09;94498.13;;;11.57;70.67
9521;BME280;4798;41.574;23.734;2023-04-01T05:50:39;94489.03;;;11.31;72.36
9521;BME280;4798;41.574;23.734;2023-04-01T05:53:08;94471.47;;;11.35;70.93
9521;BME280;4798;41.574;23.734;2023-04-01T05:55:36;94456.44;;;11.44;70.49
9521;BME280;4798;41.574;23.734;2023-04-01T05:58:05;94446.53;;;11.77;68.54
9521;BME280;4798;41.574;23.734;2023-04-01T06:00:33;94436.00;;;11.85;68.55
9521;BME280;4798;41.574;23.734;2023-04-01T06:03:02;94384.53;;;11.18;67.88
9521;BME280;4798;41.574;23.734;2023-04-01T06:05:39;94455.44;;;11.26;69.14
9521;BME280;4798;41.574;23.734;2023-04-01T06:08:11;94448.78;;;11.42;68.59
9521;BME280;4798;41.574;23.734;2023-04-01T06:10:53;94448.06;;;11.64;68.58
9521;BME280;4798;41.574;23.734;2023-04-01T06:13:34;94446.53;;;12.48;66.29
9521;BME280;4798;41.574;23.734;2023-04-01T06:16:11;94451.09;;;13.01;64.26
9521;BME280;4798;41.574;23.734;2023-04-01T06:22:01;94430.47;;;14.02;60.14
9521;BME280;4798;41.574;23.734;2023-04-01T06:24:49;94402.91;;;14.24;58.87
9521;BME280;4798;41.574;23.734;2023-04-01T06:27:31;94403.22;;;14.65;57.69
9521;BME280;4798;41.574;23.734;2023-04-01T06:30:16;94404.00;;;14.74;57.24
9521;BME280;4798;41.574;23.734;2023-04-01T06:32:57;94395.88;;;15.63;55.23
9521;BME280;4798;41.574;23.734;2023-04-01T06:35:52;94369.69;;;15.77;54.24
9521;BME280;4798;41.574;23.734;2023-04-01T06:38:41;94383.91;;;16.11;53.70
9521;BME280;4798;41.574;23.734;2023-04-01T06:41:51;94394.31;;;16.45;54.20
9521;BME280;4798;41.574;23.734;2023-04-01T06:44:31;94400.84;;;16.15;53.11
9521;BME280;4798;41.574;23.734;2023-04-01T06:47:14;94389.88;;;16.70;53.51
9521;BME280;4798;41.574;23.734;2023-04-01T06:49:52;94386.34;;;16.78;52.64
9521;BME280;4798;41.574;23.734;2023-04-01T06:52:28;94391.75;;;15.66;54.25
9521;BME280;4798;41.574;23.734;2023-04-01T06:55:05;94371.81;;;15.84;54.91
9521;BME280;4798;41.574;23.734;2023-04-01T06:57:43;94357.44;;;16.38;54.07
9521;BME280;4798;41.574;23.734;2023-04-01T07:00:15;94323.63;;;16.55;53.16
9521;BME280;4798;41.574;23.734;2023-04-01T07:02:49;94356.63;;;16.59;52.76
9521;BME280;4798;41.574;23.734;2023-04-01T07:05:23;94346.03;;;16.09;54.00
9521;BME280;4798;41.574;23.734;2023-04-01T07:07:54;94348.44;;;16.02;53.03
9521;BME280;4798;41.574;23.734;2023-04-01T07:10:34;94344.16;;;16.63;52.36
9521;BME280;4798;41.574;23.734;2023-04-01T07:13:05;94358.88;;;16.36;51.61
9521;BME280;4798;41.574;23.734;2023-04-01T07:15:39;94367.53;;;17.55;49.86
9521;BME280;4798;41.574;23.734;2023-04-01T07:18:12;94376.75;;;17.82;48.10
9521;BME280;4798;41.574;23.734;2023-04-01T07:20:44;94372.38;;;18.14;48.09
9521;BME280;4798;41.574;23.734;2023-04-01T07:23:20;94367.44;;;18.04;49.00
9521;BME280;4798;41.574;23.734;2023-04-01T07:25:55;94272.66;;;17.84;46.94
9521;BME280;4798;41.574;23.734;2023-04-01T07:28:30;94313.91;;;17.31;49.29
9521;BME280;4798;41.574;23.734;2023-04-01T07:31:10;94379.72;;;17.08;50.37
9521;BME280;4798;41.574;23.734;2023-04-01T07:33:48;94374.63;;;17.15;49.84
9521;BME280;4798;41.574;23.734;2023-04-01T07:36:24;94372.50;;;17.93;48.56
9521;BME280;4798;41.574;23.734;2023-04-01T07:39:00;94371.06;;;17.96;48.06
9521;BME280;4798;41.574;23.734;2023-04-01T07:41:42;94363.53;;;18.01;48.03
9521;BME280;4798;41.574;23.734;2023-04-01T07:44:21;94352.78;;;17.61;51.19
9521;BME280;4798;41.574;23.734;2023-04-01T07:46:59;94346.69;;;18.40;47.57
9521;BME280;4798;41.574;23.734;2023-04-01T07:49:36;94312.09;;;18.79;47.17
9521;BME280;4798;41.574;23.734;2023-04-01T07:52:14;94326.28;;;18.79;48.29
9521;BME280;4798;41.574;23.734;2023-04-01T07:54:49;94326.41;;;17.75;48.66
9521;BME280;4798;41.574;23.734;2023-04-01T07:57:23;94316.88;;;18.58;48.39
9521;BME280;4798;41.574;23.734;2023-04-01T08:00:00;94330.31;;;17.78;50.38
9521;BME280;4798;41.574;23.734;2023-04-01T08:02:40;94333.91;;;17.22;51.11
9521;BME280;4798;41.574;23.734;2023-04-01T08:05:21;94329.09;;;17.27;51.64
9521;BME280;4798;41.574;23.734;2023-04-01T08:07:56;94314.84;;;18.11;51.05
9521;BME280;4798;41.574;23.734;2023-04-01T08:10:33;94151.81;;;17.22;49.73
9521;BME280;4798;41.574;23.734;2023-04-01T08:13:12;94295.16;;;18.35;49.85
9521;BME280;4798;41.574;23.734;2023-04-01T08:15:48;94292.53;;;18.94;49.21
9521;BME280;4798;41.574;23.734;2023-04-01T08:18:27;94268.38;;;19.95;46.92
9521;BME280;4798;41.574;23.734;2023-04-01T08:20:59;94270.91;;;20.07;46.56
9521;BME280;4798;41.574;23.734;2023-04-01T08:23:32;94217.41;;;19.13;46.75
9521;BME280;4798;41.574;23.734;2023-04-01T08:26:04;94232.25;;;18.76;48.22
9521;BME280;4798;41.574;23.734;2023-04-01T08:28:40;94251.47;;;18.78;48.30
9521;BME280;4798;41.574;23.734;2023-04-01T08:31:12;94247.78;;;19.33;50.14
9521;BME280;4798;41.574;23.734;2023-04-01T08:33:44;94222.66;;;19.76;47.24
9521;BME280;4798;41.574;23.734;2023-04-01T08:36:16;94248.13;;;19.31;48.41
9521;BME280;4798;41.574;23.734;2023-04-01T08:38:48;94241.19;;;19.46;47.39
9521;BME280;4798;41.574;23.734;2023-04-01T08:41:33;94219.50;;;19.74;47.19
9521;BME280;4798;41.574;23.734;2023-04-01T08:44:29;94228.81;;;19.10;47.42
9521;BME280;4798;41.574;23.734;2023-04-01T08:47:20;94213.44;;;19.77;46.89
9521;BME280;4798;41.574;23.734;2023-04-01T08:50:17;94225.94;;;20.46;46.38
9521;BME280;4798;41.574;23.734;2023-04-01T08:52:51;94184.94;;;19.72;46.06
9521;BME280;4798;41.574;23.734;2023-04-01T08:55:31;94192.28;;;19.75;45.99
9521;BME280;4798;41.574;23.734;2023-04-01T08:58:16;94186.28;;;20.65;45.74
9521;BME280;4798;41.574;23.734;2023-04-01T09:00:53;94172.81;;;20.88;44.78
9521;BME280;4798;41.574;23.734;2023-04-01T09:03:37;94179.50;;;20.30;45.01
9521;BME280;4798;41.574;23.734;2023-04-01T09:06:34;94162.91;;;20.96;45.74
9521;BME280;4798;41.574;23.734;2023-04-01T09:09:28;94162.28;;;20.34;46.83
9521;BME280;4798;41.574;23.734;2023-04-01T09:15:25;94116.47;;;21.28;43.66
9521;BME280;4798;41.574;23.734;2023-04-01T09:18:23;94074.00;;;21.85;43.46
9521;BME280;4798;41.574;23.734;2023-04-01T09:21:10;94087.09;;;22.67;42.46
9521;BME280;4798;41.574;23.734;2023-04-01T09:27:00;94133.31;;;23.67;40.84
9521;BME280;4798;41.574;23.734;2023-04-01T09:32:45;94130.41;;;24.18;41.19
9521;BME280;4798;41.574;23.734;2023-04-01T09:35:23;94095.91;;;23.90;41.39
9521;BME280;4798;41.574;23.734;2023-04-01T09:37:56;94112.28;;;24.54;39.26
9521;BME280;4798;41.574;23.734;2023-04-01T09:40:33;94120.75;;;24.42;39.98
9521;BME280;4798;41.574;23.734;2023-04-01T09:43:25;94108.34;;;24.27;39.98
9521;BME280;4798;41.574;23.734;2023-04-01T09:46:10;94047.53;;;25.27;38.85
9521;BME280;4798;41.574;23.734;2023-04-01T09:51:51;94074.97;;;26.33;36.50
9521;BME280;4798;41.574;23.734;2023-04-01T09:54:36;94070.41;;;26.19;35.29
9521;BME280;4798;41.574;23.734;2023-04-01T09:57:29;94077.06;;;24.50;37.15
9521;BME280;4798;41.574;23.734;2023-04-01T10:06:53;94067.78;;;24.83;38.77
9521;BME280;4798;41.574;23.734;2023-04-01T10:10:01;94059.88;;;25.49;37.66
9521;BME280;4798;41.574;23.734;2023-04-01T10:13:14;94061.56;;;24.83;37.13
9521;BME280;4798;41.574;23.734;2023-04-01T10:16:05;94038.63;;;25.26;37.22
9521;BME280;4798;41.574;23.734;2023-04-01T10:25:15;93984.81;;;26.89;34.56
9521;BME280;4798;41.574;23.734;2023-04-01T10:28:07;94010.44;;;27.90;32.82
9521;BME280;4798;41.574;23.734;2023-04-01T10:31:02;94018.06;;;27.41;32.00
9521;BME280;4798;41.574;23.734;2023-04-01T10:34:00;94012.44;;;26.36;33.66
9521;BME280;4798;41.574;23.734;2023-04-01T10:36:50;93998.41;;;27.27;33.20
9521;BME280;4798;41.574;23.734;2023-04-01T10:39:34;93959.47;;;28.17;30.95
9521;BME280;4798;41.574;23.734;2023-04-01T10:42:30;93980.28;;;28.77;30.50
9521;BME280;4798;41.574;23.734;2023-04-01T10:45:33;93970.06;;;28.34;31.52
9521;BME280;4798;41.574;23.734;2023-04-01T10:48:20;93962.13;;;30.04;28.86
9521;BME280;4798;41.574;23.734;2023-04-01T10:51:04;93953.09;;;28.73;30.05
9521;BME280;4798;41.574;23.734;2023-04-01T10:54:19;93943.75;;;29.33;31.54
9521;BME280;4798;41.574;23.734;2023-04-01T10:56:59;93923.34;;;29.93;29.80
9521;BME280;4798;41.574;23.734;2023-04-01T11:02:57;93945.53;;;29.79;28.48
9521;BME280;4798;41.574;23.734;2023-04-01T11:06:08;93955.38;;;29.93;28.48
9521;BME280;4798;41.574;23.734;2023-04-01T11:15:32;93926.53;;;31.55;25.77
9521;BME280;4798;41.574;23.734;2023-04-01T11:21:39;93930.13;;;30.37;25.95
9521;BME280;4798;41.574;23.734;2023-04-01T11:24:32;93886.31;;;29.01;27.02
9521;BME280;4798;41.574;23.734;2023-04-01T11:27:17;93894.44;;;30.57;26.45
9521;BME280;4798;41.574;23.734;2023-04-01T11:30:01;93884.59;;;30.14;26.75
9521;BME280;4798;41.574;23.734;2023-04-01T11:32:51;93917.44;;;30.11;26.30
9521;BME280;4798;41.574;23.734;2023-04-01T11:38:27;93918.25;;;28.38;26.88
9521;BME280;4798;41.574;23.734;2023-04-01T11:41:08;93906.97;;;27.90;27.05
9521;BME280;4798;41.574;23.734;2023-04-01T11:43:46;93886.03;;;28.10;27.35
9521;BME280;4798;41.574;23.734;2023-04-01T11:46:25;93897.00;;;28.49;27.00
9521;BME280;4798;41.574;23.734;2023-04-01T11:49:04;93912.88;;;27.85;28.78
9521;BME280;4798;41.574;23.734;2023-04-01T11:51:48;93895.06;;;28.03;28.57
9521;BME280;4798;41.574;23.734;2023-04-01T11:54:35;93847.75;;;28.40;28.12
9521;BME280;4798;41.574;23.734;2023-04-01T11:57:23;93891.56;;;28.26;28.66
9521;BME280;4798;41.574;23.734;2023-04-01T12:00:05;93867.56;;;27.71;29.61
9521;BME280;4798;41.574;23.734;2023-04-01T12:02:51;93860.69;;;28.13;28.27
9521;BME280;4798;41.574;23.734;2023-04-01T12:05:41;93859.72;;;29.25;27.22
9521;BME280;4798;41.574;23.734;2023-04-01T12:08:20;93853.66;;;28.15;27.97
9521;BME280;4798;41.574;23.734;2023-04-01T12:10:56;93855.19;;;28.99;26.80
9521;BME280;4798;41.574;23.734;2023-04-01T12:13:39;93850.41;;;29.74;26.80
9521;BME280;4798;41.574;23.734;2023-04-01T12:16:26;93856.16;;;29.96;26.47
9521;BME280;4798;41.574;23.734;2023-04-01T12:19:04;93860.66;;;30.51;26.97
9521;BME280;4798;41.574;23.734;2023-04-01T12:21:45;93872.66;;;30.82;26.11
9521;BME280;4798;41.574;23.734;2023-04-01T12:27:23;93864.41;;;29.76;26.35
9521;BME280;4798;41.574;23.734;2023-04-01T12:30:06;93823.78;;;28.51;26.84
9521;BME280;4798;41.574;23.734;2023-04-01T12:32:43;93840.81;;;28.78;26.97
9521;BME280;4798;41.574;23.734;2023-04-01T12:35:20;93842.66;;;28.19;27.55
9521;BME280;4798;41.574;23.734;2023-04-01T12:37:59;93853.31;;;27.33;28.91
9521;BME280;4798;41.574;23.734;2023-04-01T12:40:47;93855.84;;;25.71;30.43
9521;BME280;4798;41.574;23.734;2023-04-01T12:43:31;93867.50;;;25.72;30.36
9521;BME280;4798;41.574;23.734;2023-04-01T12:46:08;93827.41;;;25.39;31.41
9521;BME280;4798;41.574;23.734;2023-04-01T12:52:04;93870.41;;;24.50;32.79
9521;BME280;4798;41.574;23.734;2023-04-01T13:01:06;93898.72;;;22.46;38.53
9521;BME280;4798;41.574;23.734;2023-04-01T13:07:03;93959.94;;;21.44;41.59
9521;BME280;4798;41.574;23.734;2023-04-01T13:09:45;93987.78;;;19.87;49.99
9521;BME280;4798;41.574;23.734;2023-04-01T13:12:29;93955.84;;;18.98;55.92
9521;BME280;4798;41.574;23.734;2023-04-01T13:15:15;94000.31;;;17.95;59.91
9521;BME280;4798;41.574;23.734;2023-04-01T13:17:53;94007.34;;;17.41;67.56
9521;BME280;4798;41.574;23.734;2023-04-01T13:20:39;94012.09;;;17.32;69.56
9521;BME280;4798;41.574;23.734;2023-04-01T13:23:18;94024.50;;;17.24;70.41
9521;BME280;4798;41.574;23.734;2023-04-01T13:25:54;94034.53;;;16.99;73.69
9521;BME280;4798;41.574;23.734;2023-04-01T13:28:43;94014.78;;;17.04;75.35
9521;BME280;4798;41.574;23.734;2023-04-01T13:31:25;94008.34;;;16.93;74.41
9521;BME280;4798;41.574;23.734;2023-04-01T13:34:03;94004.91;;;17.20;80.99
9521;BME280;4798;41.574;23.734;2023-04-01T13:36:42;94002.84;;;17.29;77.58
9521;BME280;4798;41.574;23.734;2023-04-01T13:39:30;94007.81;;;16.23;76.49
9521;BME280;4798;41.574;23.734;2023-04-01T13:42:17;93962.16;;;15.92;79.39
9521;BME280;4798;41.574;23.734;2023-04-01T13:44:50;94004.13;;;15.92;77.34
9521;BME280;4798;41.574;23.734;2023-04-01T13:47:40;93963.63;;;15.53;79.39
9521;BME280;4798;41.574;23.734;2023-04-01T13:50:34;94016.03;;;15.82;86.56
9521;BME280;4798;41.574;23.734;2023-04-01T13:53:32;93962.59;;;15.13;77.43
9521;BME280;4798;41.574;23.734;2023-04-01T13:56:23;94026.91;;;15.53;75.79
9521;BME280;4798;41.574;23.734;2023-04-01T13:59:07;94030.38;;;15.53;82.58
9521;BME280;4798;41.574;23.734;2023-04-01T14:01:44;94011.47;;;15.95;73.95
9521;BME280;4798;41.574;23.734;2023-04-01T14:04:41;94024.72;;;15.79;71.63
9521;BME280;4798;41.574;23.734;2023-04-01T14:07:36;94006.56;;;15.97;73.96
9521;BME280;4798;41.574;23.734;2023-04-01T14:10:17;94033.41;;;16.12;86.52
9521;BME280;4798;41.574;23.734;2023-04-01T14:12:50;94001.09;;;15.57;79.70
9521;BME280;4798;41.574;23.734;2023-04-01T14:15:39;94057.69;;;16.07;76.03
9521;BME280;4798;41.574;23.734;2023-04-01T14:18:37;94060.53;;;15.33;78.77
9521;BME280;4798;41.574;23.734;2023-04-01T14:21:31;94030.59;;;15.27;78.13
9521;BME280;4798;41.574;23.734;2023-04-01T14:24:14;94029.94;;;15.63;87.33
9521;BME280;4798;41.574;23.734;2023-04-01T14:27:17;94011.25;;;15.31;85.18
9521;BME280;4798;41.574;23.734;2023-04-01T14:29:59;93999.22;;;15.57;82.44
9521;BME280;4798;41.574;23.734;2023-04-01T14:32:41;94014.38;;;15.65;87.44
9521;BME280;4798;41.574;23.734;2023-04-01T14:35:25;93994.22;;;16.04;77.30
9521;BME280;4798;41.574;23.734;2023-04-01T14:38:09;93983.94;;;15.46;81.59
9521;BME280;4798;41.574;23.734;2023-04-01T14:41:12;94003.09;;;14.82;100.00
9521;BME280;4798;41.574;23.734;2023-04-01T14:44:00;93976.34;;;14.29;100.00
9521;BME280;4798;41.574;23.734;2023-04-01T14:46:51;93973.69;;;14.29;100.00
9521;BME280;4798;41.574;23.734;2023-04-01T14:49:32;93974.31;;;15.53;100.00
9521;BME280;4798;41.574;23.734;2023-04-01T14:52:11;93940.19;;;16.23;91.45
9521;BME280;4798;41.574;23.734;2023-04-01T14:54:44;93984.97;;;17.05;79.45
9521;BME280;4798;41.574;23.734;2023-04-01T14:57:16;93964.63;;;17.17;75.09
9521;BME280;4798;41.574;23.734;2023-04-01T14:59:54;93847.34;;;17.06;69.83
9521;BME280;4798;41.574;23.734;2023-04-01T15:02:47;93959.06;;;18.00;69.08
9521;BME280;4798;41.574;23.734;2023-04-01T15:05:29;93906.28;;;17.53;72.72
9521;BME280;4798;41.574;23.734;2023-04-01T15:08:09;93942.84;;;17.77;74.62